createdAt,value
2019-04-25T00:01:38.297Z,84.50
2019-04-25T00:03:42.579Z,84.10
2019-04-25T00:05:45.796Z,84.90
2019-04-25T00:07:49.335Z,85.90
2019-04-25T00:09:53.946Z,86.00
2019-04-25T00:11:59.612Z,85.50
2019-04-25T00:14:01.539Z,85.00
2019-04-25T00:16:04.875Z,85.50
2019-04-25T00:18:08.480Z,84.80
2019-04-25T00:20:12.583Z,85.70
2019-04-25T00:23:21.648Z,85.80
2019-04-25T00:26:04.506Z,86.80
2019-04-25T00:28:09.533Z,87.20
2019-04-25T00:30:13.203Z,87.00
2019-04-25T00:32:16.636Z,87.20
2019-04-25T00:34:21.762Z,87.70
2019-04-25T00:36:24.780Z,87.90
2019-04-25T00:38:28.407Z,88.00
2019-04-25T00:40:31.987Z,88.10
2019-04-25T00:42:35.682Z,87.10
2019-04-25T00:44:39.590Z,86.80
2019-04-25T00:46:47.469Z,86.30
2019-04-25T00:48:46.761Z,87.00
2019-04-25T00:50:52.092Z,87.80
2019-04-25T00:52:54.034Z,88.00
2019-04-25T00:54:57.668Z,87.70
2019-04-25T00:57:02.174Z,87.90
2019-04-25T00:59:11.848Z,88.90
2019-04-25T01:01:21.760Z,87.20
2019-04-25T01:03:26.289Z,85.00
2019-04-25T01:05:31.614Z,84.20
2019-04-25T01:07:34.486Z,84.40
2019-04-25T01:09:37.304Z,84.60
2019-04-25T01:11:42.343Z,85.10
2019-04-25T01:13:46.167Z,84.80
2019-04-25T01:15:48.912Z,82.40
2019-04-25T01:17:53.438Z,82.20
2019-04-25T01:19:57.937Z,80.50
2019-04-25T01:21:59.895Z,79.20
2019-04-25T01:24:04.274Z,80.30
2019-04-25T01:26:07.360Z,80.10
2019-04-25T01:28:13.162Z,79.70
2019-04-25T01:30:15.987Z,80.70
2019-04-25T01:32:23.843Z,82.20
2019-04-25T01:34:34.295Z,84.20
2019-04-25T01:36:58.761Z,85.60
2019-04-25T01:39:09.566Z,85.50
2019-04-25T01:41:20.401Z,86.10
2019-04-25T01:43:28.905Z,86.10
2019-04-25T01:45:33.904Z,86.50
2019-04-25T01:47:36.152Z,86.00
2019-04-25T01:49:39.608Z,83.40
2019-04-25T01:51:43.723Z,82.80
2019-04-25T01:53:47.073Z,82.00
2019-04-25T01:55:56.216Z,80.80
2019-04-25T01:57:55.163Z,81.10
2019-04-25T01:59:58.073Z,83.20
2019-04-25T02:02:01.625Z,82.00
2019-04-25T02:04:05.518Z,82.00
2019-04-25T02:06:09.156Z,82.60
2019-04-25T02:08:14.163Z,80.90
2019-04-25T02:10:17.608Z,81.50
2019-04-25T02:12:25.163Z,81.10
2019-04-25T02:14:28.855Z,81.70
2019-04-25T02:16:33.598Z,82.00
2019-04-25T02:18:36.084Z,80.70
2019-04-25T02:20:39.615Z,82.60
2019-04-25T02:22:44.164Z,82.00
2019-04-25T02:24:46.544Z,80.90
2019-04-25T02:26:49.989Z,79.40
2019-04-25T02:28:55.188Z,80.60
2019-04-25T02:31:00.025Z,79.40
2019-04-25T02:33:06.127Z,81.50
2019-04-25T02:35:09.136Z,79.60
2019-04-25T02:37:09.432Z,79.70
2019-04-25T02:39:15.957Z,79.70
2019-04-25T02:41:20.488Z,81.50
2019-04-25T02:43:24.078Z,81.20
2019-04-25T02:47:35.192Z,78.80
2019-04-25T02:49:44.710Z,80.50
2019-04-25T02:51:55.154Z,80.60
2019-04-25T02:53:57.943Z,80.90
2019-04-25T02:56:01.787Z,81.40
2019-04-25T02:58:08.108Z,79.60
2019-04-25T03:00:08.846Z,80.60
2019-04-25T03:02:11.847Z,80.20
2019-04-25T03:04:15.333Z,81.50
2019-04-25T03:06:18.807Z,81.20
2019-04-25T03:08:24.233Z,80.80
2019-04-25T03:10:27.014Z,80.60
2019-04-25T03:12:33.449Z,82.00
2019-04-25T03:14:34.983Z,82.60
2019-04-25T03:16:36.187Z,82.70
2019-04-25T03:19:15.440Z,82.50
2019-04-25T03:21:25.046Z,82.50
2019-04-25T03:23:34.973Z,82.60
2019-04-25T03:25:36.380Z,82.40
2019-04-25T03:27:40.027Z,82.70
2019-04-25T03:29:44.228Z,82.70
2019-04-25T03:31:47.178Z,83.30
2019-04-25T03:33:55.541Z,84.00
2019-04-25T03:35:56.555Z,83.80
2019-04-25T03:38:01.140Z,83.70
2019-04-25T03:40:05.599Z,82.60
2019-04-25T03:42:07.803Z,83.00
2019-04-25T03:44:12.529Z,83.50
2019-04-25T03:46:15.747Z,83.10
2019-04-25T03:48:19.288Z,82.30
2019-04-25T03:50:23.255Z,82.50
2019-04-25T03:52:26.475Z,82.50
2019-04-25T03:54:30.129Z,83.00
2019-04-25T03:56:33.624Z,82.40
2019-04-25T03:58:37.262Z,83.20
2019-04-25T04:00:40.816Z,83.20
2019-04-25T04:02:45.119Z,83.00
2019-04-25T04:04:48.769Z,82.40
2019-04-25T04:06:53.763Z,82.90
2019-04-25T04:08:56.009Z,83.00
2019-04-25T04:10:59.436Z,83.50
2019-04-25T04:13:05.149Z,83.40
2019-04-25T04:15:08.303Z,84.00
2019-04-25T04:17:16.931Z,83.90
2019-04-25T04:19:20.513Z,84.10
2019-04-25T04:21:29.561Z,83.30
2019-04-25T04:23:39.447Z,83.70
2019-04-25T04:25:43.340Z,84.00
2019-04-25T04:27:46.779Z,83.90
2019-04-25T04:29:50.335Z,83.90
2019-04-25T04:31:54.418Z,83.60
2019-04-25T04:33:57.626Z,83.00
2019-04-25T04:36:01.098Z,82.80
2019-04-25T04:38:04.545Z,83.50
2019-04-25T04:40:08.095Z,84.20
2019-04-25T04:42:13.704Z,82.80
2019-04-25T04:44:16.473Z,83.60
2019-04-25T04:46:19.793Z,83.40
2019-04-25T04:48:23.224Z,84.10
2019-04-25T04:50:26.308Z,83.30
2019-04-25T04:52:29.847Z,84.20
2019-04-25T04:54:34.428Z,84.70
2019-04-25T04:56:36.815Z,84.10
2019-04-25T04:58:43.214Z,83.30
2019-04-25T05:00:46.779Z,82.80
2019-04-25T05:02:59.675Z,83.20
2019-04-25T05:05:09.669Z,83.70
2019-04-25T05:07:19.540Z,82.90
2019-04-25T05:09:26.788Z,83.30
2019-04-25T05:11:33.457Z,82.30
2019-04-25T05:13:36.369Z,81.80
2019-04-25T05:15:43.003Z,80.80
2019-04-25T05:17:46.429Z,80.60
2019-04-25T05:19:51.511Z,80.00
2019-04-25T05:22:06.871Z,81.60
2019-04-25T05:24:10.491Z,82.30
2019-04-25T05:26:16.050Z,80.40
2019-04-25T05:28:19.339Z,78.80
2019-04-25T05:30:26.883Z,79.90
2019-04-25T05:32:30.406Z,80.00
2019-04-25T05:34:34.535Z,77.90
2019-04-25T05:36:37.852Z,80.10
2019-04-25T05:38:41.268Z,80.00
2019-04-25T05:40:53.823Z,79.20
2019-04-25T05:43:03.285Z,79.50
2019-04-25T05:45:06.144Z,79.00
2019-04-25T05:47:09.693Z,79.60
2019-04-25T05:49:13.819Z,76.70
2019-04-25T05:51:17.425Z,79.00
2019-04-25T05:53:20.592Z,79.40
2019-04-25T05:55:26.575Z,78.50
2019-04-25T05:57:29.992Z,79.60
2019-04-25T05:59:33.825Z,78.90
2019-04-25T06:01:36.930Z,78.90
2019-04-25T06:03:40.336Z,78.50
2019-04-25T06:05:43.768Z,78.70
2019-04-25T06:07:47.246Z,78.20
2019-04-25T06:09:57.676Z,78.70
2019-04-25T06:12:05.331Z,79.10
2019-04-25T06:14:10.562Z,76.10
2019-04-25T06:16:32.875Z,77.20
2019-04-25T06:18:44.023Z,77.00
2019-04-25T06:20:46.836Z,76.50
2019-04-25T06:22:58.200Z,76.20
2019-04-25T06:25:12.486Z,76.10
2019-04-25T06:27:27.185Z,75.70
2019-04-25T06:29:30.592Z,76.00
2019-04-25T06:31:34.207Z,76.00
2019-04-25T06:33:37.502Z,75.30
2019-04-25T06:35:40.907Z,74.20
2019-04-25T06:37:44.375Z,74.90
2019-04-25T06:39:47.831Z,73.50
2019-04-25T06:41:51.239Z,74.40
2019-04-25T06:43:54.736Z,74.60
2019-04-25T06:46:03.781Z,73.70
2019-04-25T06:49:08.960Z,73.80
2019-04-25T06:51:13.464Z,73.90
2019-04-25T06:53:15.956Z,73.70
2019-04-25T06:55:21.022Z,73.70
2019-04-25T06:57:24.453Z,74.20
2019-04-25T06:59:28.576Z,73.70
2019-04-25T07:01:30.559Z,73.10
2019-04-25T07:03:35.628Z,73.00
2019-04-25T07:05:40.538Z,73.80
2019-04-25T07:07:40.940Z,72.80
2019-04-25T07:09:44.445Z,72.10
2019-04-25T07:11:48.245Z,72.10
2019-04-25T07:13:51.401Z,70.80
2019-04-25T07:15:54.954Z,72.30
2019-04-25T07:17:59.168Z,72.30
2019-04-25T07:20:03.912Z,71.40
2019-04-25T07:22:06.075Z,71.80
2019-04-25T07:24:09.531Z,71.60
2019-04-25T07:26:17.327Z,71.90
2019-04-25T07:28:50.997Z,72.50
2019-04-25T07:31:03.628Z,72.40
2019-04-25T07:33:13.753Z,71.90
2019-04-25T07:35:15.663Z,70.80
2019-04-25T07:37:19.145Z,71.50
2019-04-25T07:39:23.681Z,71.30
2019-04-25T07:41:27.126Z,71.40
2019-04-25T07:43:30.246Z,70.70
2019-04-25T07:45:34.697Z,69.20
2019-04-25T07:47:37.716Z,69.60
2019-04-25T07:49:40.630Z,69.20
2019-04-25T07:51:45.368Z,68.60
2019-04-25T07:53:47.720Z,68.00
2019-04-25T07:55:51.196Z,68.60
2019-04-25T07:57:54.636Z,68.00
2019-04-25T07:59:58.056Z,67.70
2019-04-25T08:02:03.285Z,66.20
2019-04-25T08:04:05.092Z,66.80
2019-04-25T08:06:08.529Z,65.00
2019-04-25T08:08:13.474Z,66.50
2019-04-25T08:10:15.872Z,65.40
2019-04-25T08:12:19.502Z,65.90
2019-04-25T08:14:28.543Z,64.90
2019-04-25T08:16:34.317Z,64.90
2019-04-25T08:18:36.071Z,65.30
2019-04-25T08:20:40.136Z,64.50
2019-04-25T08:22:55.824Z,63.10
2019-04-25T08:24:46.750Z,63.80
2019-04-25T08:26:50.748Z,65.20
2019-04-25T08:28:57.206Z,64.00
2019-04-25T08:30:57.620Z,64.60
2019-04-25T08:33:01.106Z,62.40
2019-04-25T08:35:04.672Z,63.50
2019-04-25T08:37:17.575Z,62.50
2019-04-25T08:39:14.339Z,63.80
2019-04-25T08:41:15.965Z,62.60
2019-04-25T08:43:19.404Z,63.50
2019-04-25T08:45:24.366Z,61.50
2019-04-25T08:47:26.377Z,62.10
2019-04-25T08:49:34.902Z,62.20
2019-04-25T08:51:40.051Z,63.20
2019-04-25T08:53:50.791Z,64.30
2019-04-25T08:56:01.392Z,65.00
2019-04-25T08:58:09.505Z,63.60
2019-04-25T09:00:17.998Z,63.30
2019-04-25T09:02:36.124Z,63.20
2019-04-25T09:04:40.773Z,61.90
2019-04-25T09:06:44.308Z,63.40
2019-04-25T09:08:47.624Z,63.40
2019-04-25T09:10:51.348Z,63.60
2019-04-25T09:12:54.804Z,64.00
2019-04-25T09:14:58.252Z,63.00
2019-04-25T09:17:03.252Z,64.10
2019-04-25T09:19:05.331Z,64.10
2019-04-25T09:21:08.860Z,65.60
2019-04-25T09:23:13.645Z,64.30
2019-04-25T09:25:15.880Z,64.30
2019-04-25T09:27:19.300Z,64.40
2019-04-25T09:29:23.507Z,64.40
2019-04-25T09:31:26.235Z,64.00
2019-04-25T09:33:29.638Z,64.40
2019-04-25T09:35:33.585Z,63.80
2019-04-25T09:37:36.788Z,63.80
2019-04-25T09:39:45.485Z,64.90
2019-04-25T09:41:48.641Z,65.90
2019-04-25T09:43:52.954Z,64.60
2019-04-25T09:46:00.148Z,64.40
2019-04-25T09:48:08.580Z,62.80
2019-04-25T09:50:16.767Z,63.00
2019-04-25T09:52:21.772Z,62.50
2019-04-25T09:54:46.349Z,62.90
2019-04-25T09:56:49.391Z,61.90
2019-04-25T09:58:55.743Z,63.00
2019-04-25T10:01:03.802Z,64.10
2019-04-25T10:03:07.327Z,63.10
2019-04-25T10:05:10.984Z,64.20
2019-04-25T10:07:14.566Z,62.20
2019-04-25T10:09:18.153Z,63.00
2019-04-25T10:11:21.600Z,61.40
2019-04-25T10:13:25.193Z,61.10
2019-04-25T10:15:46.803Z,61.70
2019-04-25T10:17:50.364Z,61.10
2019-04-25T10:19:53.888Z,61.50
2019-04-25T10:21:57.492Z,62.60
2019-04-25T10:24:00.996Z,62.20
2019-04-25T10:26:05.020Z,63.50
2019-04-25T10:28:08.480Z,64.60
2019-04-25T10:30:17.799Z,64.30
2019-04-25T10:32:17.560Z,64.70
2019-04-25T10:34:20.988Z,66.00
2019-04-25T10:36:24.644Z,60.80
2019-04-25T10:38:28.146Z,61.40
2019-04-25T10:40:31.636Z,60.70
2019-04-25T10:42:35.155Z,63.20
2019-04-25T10:44:39.257Z,62.10
2019-04-25T10:46:42.157Z,60.80
2019-04-25T10:48:46.044Z,59.60
2019-04-25T10:50:49.116Z,59.80
2019-04-25T10:52:54.261Z,59.50
2019-04-25T10:54:56.200Z,59.40
2019-04-25T10:56:59.780Z,60.30
2019-04-25T10:59:04.226Z,61.50
2019-04-25T11:01:06.861Z,59.90
2019-04-25T11:03:15.553Z,59.30
2019-04-25T11:05:19.073Z,59.20
2019-04-25T11:07:23.485Z,58.30
2019-04-25T11:09:26.486Z,59.10
2019-04-25T11:11:31.206Z,59.80
2019-04-25T11:13:35.476Z,57.70
2019-04-25T11:15:38.712Z,58.30
2019-04-25T11:17:45.171Z,59.30
2019-04-25T11:19:45.636Z,58.20
2019-04-25T11:21:49.125Z,59.00
2019-04-25T11:23:55.011Z,55.70
2019-04-25T11:25:56.255Z,55.60
2019-04-25T11:27:59.758Z,57.10
2019-04-25T11:30:10.801Z,57.30
2019-04-25T11:32:06.878Z,56.00
2019-04-25T11:34:10.879Z,55.80
2019-04-25T11:36:13.888Z,53.70
2019-04-25T11:38:21.800Z,57.10
2019-04-25T11:40:29.688Z,53.80
2019-04-25T11:42:33.843Z,55.70
2019-04-25T11:44:36.607Z,54.00
2019-04-25T11:46:40.075Z,53.00
2019-04-25T11:48:45.079Z,54.10
2019-04-25T11:50:52.490Z,53.70
2019-04-25T11:52:56.309Z,54.70
2019-04-25T11:54:59.024Z,54.60
2019-04-25T11:57:03.526Z,53.00
2019-04-25T11:59:06.965Z,50.60
2019-04-25T12:01:10.479Z,52.40
2019-04-25T12:03:13.980Z,52.40
2019-04-25T12:05:17.466Z,53.40
2019-04-25T12:07:20.951Z,53.50
2019-04-25T12:09:24.463Z,52.10
2019-04-25T12:11:27.960Z,53.40
2019-04-25T12:13:31.361Z,51.80
2019-04-25T12:15:34.769Z,52.00
2019-04-25T12:17:38.313Z,52.10
2019-04-25T12:19:41.752Z,54.20
2019-04-25T12:21:45.781Z,53.90
2019-04-25T12:23:48.794Z,54.30
2019-04-25T12:25:54.049Z,52.10
2019-04-25T12:27:55.967Z,49.70
2019-04-25T12:29:59.592Z,52.20
2019-04-25T12:32:04.041Z,49.10
2019-04-25T12:34:06.656Z,52.90
2019-04-25T12:36:10.361Z,47.80
2019-04-25T12:38:14.172Z,50.80
2019-04-25T12:40:17.375Z,51.50
2019-04-25T12:42:20.827Z,48.80
2019-04-25T12:44:29.574Z,49.50
2019-04-25T12:46:37.313Z,48.30
2019-04-25T12:48:40.744Z,49.60
2019-04-25T12:50:44.266Z,47.10
2019-04-25T12:52:48.679Z,46.60
2019-04-25T12:57:17.537Z,47.90
2019-04-25T13:01:33.378Z,49.40
2019-04-25T13:03:37.085Z,50.30
2019-04-25T13:05:42.225Z,46.40
2019-04-25T13:07:46.839Z,47.90
2019-04-25T13:09:52.626Z,48.70
2019-04-25T13:11:56.184Z,48.60
2019-04-25T13:14:00.506Z,48.20
2019-04-25T13:16:05.449Z,48.60
2019-04-25T13:18:09.719Z,45.40
2019-04-25T13:20:14.297Z,46.40
2019-04-25T13:22:18.599Z,46.70
2019-04-25T13:24:23.164Z,46.20
2019-04-25T13:26:28.997Z,46.90
2019-04-25T13:28:38.420Z,47.50
2019-04-25T13:30:59.636Z,45.90
2019-04-25T13:32:57.686Z,44.60
2019-04-25T13:35:03.818Z,46.00
2019-04-25T13:37:07.344Z,46.80
2019-04-25T13:39:16.233Z,47.40
2019-04-25T13:41:20.594Z,46.70
2019-04-25T13:43:24.796Z,47.50
2019-04-25T13:45:29.811Z,48.40
2019-04-25T13:47:34.166Z,51.20
2019-04-25T13:49:38.121Z,50.10
2019-04-25T13:51:41.896Z,50.80
2019-04-25T13:53:45.429Z,48.40
2019-04-25T13:55:48.870Z,45.50
2019-04-25T13:57:53.378Z,45.00
2019-04-25T13:59:55.992Z,46.30
2019-04-25T14:01:59.460Z,48.80
2019-04-25T14:04:04.329Z,45.30
2019-04-25T14:06:06.728Z,48.90
2019-04-25T14:08:10.163Z,47.90
2019-04-25T14:10:14.246Z,45.70
2019-04-25T14:12:17.620Z,46.30
2019-04-25T14:14:21.488Z,49.40
2019-04-25T14:18:34.887Z,47.80
2019-04-25T14:20:41.736Z,47.50
2019-04-25T14:22:45.401Z,47.80
2019-04-25T14:24:48.885Z,45.50
2019-04-25T14:26:52.356Z,45.80
2019-04-25T14:28:55.832Z,48.50
2019-04-25T14:30:59.361Z,46.40
2019-04-25T14:33:03.606Z,48.30
2019-04-25T14:35:06.452Z,44.40
2019-04-25T14:37:10.124Z,43.90
2019-04-25T14:39:13.624Z,47.70
2019-04-25T14:41:17.828Z,43.80
2019-04-25T14:43:21.369Z,40.70
2019-04-25T14:45:24.900Z,40.30
2019-04-25T14:47:29.499Z,46.10
2019-04-25T14:49:32.922Z,42.80
2019-04-25T14:51:35.603Z,42.50
2019-04-25T14:53:38.994Z,42.40
2019-04-25T14:55:50.782Z,44.80
2019-04-25T14:57:54.396Z,42.40
2019-04-25T15:00:02.054Z,42.40
2019-04-25T15:02:02.743Z,46.40
2019-04-25T15:04:06.255Z,47.70
2019-04-25T15:06:09.687Z,46.10
2019-04-25T15:08:13.231Z,42.80
2019-04-25T15:10:16.674Z,38.70
2019-04-25T15:12:20.284Z,42.30
2019-04-25T15:14:24.758Z,42.90
2019-04-25T15:16:27.374Z,40.50
2019-04-25T15:18:31.019Z,38.70
2019-04-25T15:20:34.891Z,41.30
2019-04-25T15:22:39.267Z,42.10
2019-04-25T15:24:44.028Z,43.70
2019-04-25T15:26:47.646Z,43.50
2019-04-25T15:28:51.086Z,43.30
2019-04-25T15:30:54.559Z,44.30
2019-04-25T15:32:58.105Z,42.10
2019-04-25T15:35:01.582Z,44.30
2019-04-25T15:37:10.188Z,42.60
2019-04-25T15:39:18.980Z,44.10
2019-04-25T15:41:28.292Z,44.70
2019-04-25T15:43:36.224Z,43.90
2019-04-25T15:45:52.360Z,45.80
2019-04-25T15:47:55.843Z,47.00
2019-04-25T15:49:59.298Z,48.00
2019-04-25T15:52:02.790Z,45.80
2019-04-25T15:54:06.313Z,45.50
2019-04-25T15:56:09.766Z,44.90
2019-04-25T15:58:13.432Z,42.00
2019-04-25T16:00:20.120Z,43.50
2019-04-25T16:02:23.644Z,42.70
2019-04-25T16:04:28.203Z,44.10
2019-04-25T16:06:31.932Z,45.70
2019-04-25T16:08:35.112Z,45.10
2019-04-25T16:10:38.439Z,47.50
2019-04-25T16:12:41.873Z,48.30
2019-04-25T16:14:45.312Z,48.90
2019-04-25T16:16:48.728Z,50.40
2019-04-25T16:18:52.176Z,52.20
2019-04-25T16:20:55.632Z,52.00
2019-04-25T16:22:59.079Z,49.60
2019-04-25T16:25:02.534Z,48.10
2019-04-25T16:27:06.065Z,47.50
2019-04-25T16:29:09.515Z,46.30
2019-04-25T16:31:13.945Z,46.50
2019-04-25T16:33:17.443Z,47.60
2019-04-25T16:35:20.877Z,47.20
2019-04-25T16:37:24.315Z,44.80
2019-04-25T16:39:29.539Z,47.10
2019-04-25T16:41:31.547Z,43.60
2019-04-25T16:43:36.352Z,45.00
2019-04-25T16:45:39.944Z,45.30
2019-04-25T16:47:43.483Z,43.20
2019-04-25T16:49:47.828Z,43.60
2019-04-25T16:51:51.351Z,43.50
2019-04-25T16:53:54.893Z,42.90
2019-04-25T16:55:58.313Z,41.00
2019-04-25T16:58:01.772Z,42.70
2019-04-25T17:00:05.829Z,40.50
2019-04-25T17:02:09.473Z,42.10
2019-04-25T17:04:12.933Z,41.00
2019-04-25T17:06:16.381Z,42.00
2019-04-25T17:08:19.823Z,40.50
2019-04-25T17:10:23.385Z,41.00
2019-04-25T17:12:26.868Z,42.40
2019-04-25T17:14:35.522Z,42.30
2019-04-25T17:16:44.233Z,42.30
2019-04-25T17:18:52.292Z,44.50
2019-04-25T17:20:59.971Z,45.60
2019-04-25T17:23:04.072Z,46.00
2019-04-25T17:25:07.809Z,45.50
2019-04-25T17:27:11.625Z,45.30
2019-04-25T17:29:17.432Z,43.30
2019-04-25T17:31:26.044Z,43.90
2019-04-25T17:33:35.658Z,43.90
2019-04-25T17:35:43.505Z,44.60
2019-04-25T17:37:55.602Z,45.30
2019-04-25T17:40:02.143Z,43.60
2019-04-25T17:42:05.592Z,44.80
2019-04-25T17:44:09.059Z,45.90
2019-04-25T17:46:12.551Z,46.20
2019-04-25T17:48:15.965Z,46.30
2019-04-25T17:50:19.439Z,46.20
2019-04-25T17:52:22.872Z,45.80
2019-04-25T17:54:26.333Z,46.10
2019-04-25T17:56:29.809Z,45.30
2019-04-25T17:58:33.341Z,45.40
2019-04-25T18:00:38.216Z,45.60
2019-04-25T18:02:41.739Z,44.80
2019-04-25T18:04:45.915Z,45.00
2019-04-25T18:06:49.450Z,45.30
2019-04-25T18:09:01.726Z,44.70
2019-04-25T18:11:05.326Z,45.80
2019-04-25T18:13:09.546Z,44.50
2019-04-25T18:15:12.507Z,44.30
2019-04-25T18:17:16.070Z,45.20
2019-04-25T18:19:25.155Z,44.90
2019-04-25T18:25:49.081Z,45.10
2019-04-25T18:27:56.788Z,45.30
2019-04-25T18:30:00.416Z,45.60
2019-04-25T18:32:04.337Z,45.90
2019-04-25T18:34:09.220Z,46.90
2019-04-25T18:36:26.585Z,48.20
2019-04-25T18:40:36.626Z,49.20
2019-04-25T18:42:53.819Z,49.90
2019-04-25T18:44:57.354Z,50.30
2019-04-25T18:47:00.947Z,50.90
2019-04-25T18:49:04.711Z,51.50
2019-04-25T18:51:08.235Z,52.10
2019-04-25T18:54:21.824Z,52.30
2019-04-25T18:56:30.530Z,52.70
2019-04-25T18:58:39.854Z,52.90
2019-04-25T19:00:47.888Z,52.90
2019-04-25T19:02:55.517Z,53.20
2019-04-25T19:05:04.288Z,53.60
2019-04-25T19:07:07.779Z,53.70
2019-04-25T19:09:11.737Z,54.10
2019-04-25T19:11:15.212Z,54.60
2019-04-25T19:13:18.683Z,54.80
2019-04-25T19:15:22.173Z,54.70
2019-04-25T19:17:25.624Z,55.00
2019-04-25T19:19:29.038Z,55.50
2019-04-25T19:21:33.357Z,55.20
2019-04-25T19:23:35.949Z,55.60
2019-04-25T19:25:40.175Z,56.60
2019-04-25T19:27:42.869Z,56.00
2019-04-25T19:29:46.352Z,56.30
2019-04-25T19:31:51.945Z,56.30
2019-04-25T19:33:53.337Z,56.60
2019-04-25T19:35:56.776Z,56.90
2019-04-25T19:38:00.403Z,57.00
2019-04-25T19:40:09.199Z,56.80
2019-04-25T19:42:20.705Z,56.70
2019-04-25T19:44:26.836Z,56.70
2019-04-25T19:46:35.460Z,57.10
2019-04-25T19:48:38.961Z,56.80
2019-04-25T19:50:42.995Z,57.00
2019-04-25T19:52:46.111Z,57.20
2019-04-25T19:54:49.868Z,57.10
2019-04-25T19:56:53.309Z,56.80
2019-04-25T19:58:56.783Z,56.70
2019-04-25T20:01:00.248Z,57.20
2019-04-25T20:03:08.837Z,57.30
2019-04-25T20:05:17.761Z,57.50
2019-04-25T20:07:29.116Z,57.50
2019-04-25T20:09:47.620Z,56.50
2019-04-25T20:11:51.475Z,57.20
2019-04-25T20:13:54.680Z,57.40
2019-04-25T20:15:58.155Z,56.40
2019-04-25T20:18:01.616Z,56.40
2019-04-25T20:20:05.345Z,56.30
2019-04-25T20:22:08.767Z,56.40
2019-04-25T20:24:12.263Z,56.50
2019-04-25T20:26:15.693Z,56.90
2019-04-25T20:28:19.170Z,56.80
2019-04-25T20:30:23.751Z,57.40
2019-04-25T20:32:26.117Z,57.30
2019-04-25T20:34:29.588Z,58.10
2019-04-25T20:36:33.050Z,58.50
2019-04-25T20:38:36.523Z,58.90
2019-04-25T20:40:40.003Z,59.40
2019-04-25T20:42:43.484Z,59.70
2019-04-25T20:44:47.715Z,59.70
2019-04-25T20:46:50.563Z,60.30
2019-04-25T20:48:54.411Z,60.70
2019-04-25T20:50:57.351Z,61.10
2019-04-25T20:53:01.268Z,61.60
2019-04-25T20:55:05.148Z,61.70
2019-04-25T20:57:08.567Z,62.10
2019-04-25T20:59:12.727Z,62.60
2019-04-25T21:01:17.255Z,62.70
2019-04-25T21:03:20.721Z,63.10
2019-04-25T21:05:26.546Z,64.00
2019-04-25T21:07:30.012Z,63.90
2019-04-25T21:09:33.428Z,63.90
2019-04-25T21:11:36.914Z,63.70
2019-04-25T21:13:47.464Z,64.20
2019-04-25T21:16:05.547Z,64.40
2019-04-25T21:18:16.254Z,64.90
2019-04-25T21:20:19.712Z,64.80
2019-04-25T21:22:23.136Z,65.20
2019-04-25T21:24:26.589Z,65.40
2019-04-25T21:26:30.030Z,65.50
2019-04-25T21:28:33.544Z,65.50
2019-04-25T21:30:37.035Z,65.40
2019-04-25T21:32:45.832Z,66.00
2019-04-25T21:34:49.425Z,66.10
2019-04-25T21:36:53.336Z,66.30
2019-04-25T21:38:56.313Z,66.70
2019-04-25T21:41:05.923Z,67.00
2019-04-25T21:43:15.611Z,67.50
2019-04-25T21:45:19.101Z,67.80
2019-04-25T21:47:22.543Z,67.60
2019-04-25T21:49:26.065Z,67.70
2019-04-25T21:51:31.355Z,67.90
2019-04-25T21:53:34.823Z,68.20
2019-04-25T21:55:38.319Z,68.90
2019-04-25T21:57:41.758Z,69.10
2019-04-25T21:59:45.263Z,69.10
2019-04-25T22:01:48.776Z,69.50
2019-04-25T22:03:56.417Z,69.80
2019-04-25T22:06:03.661Z,70.00
2019-04-25T22:08:10.505Z,70.20
2019-04-25T22:10:14.104Z,70.20
2019-04-25T22:12:17.661Z,70.40
2019-04-25T22:14:21.166Z,70.60
2019-04-25T22:16:24.638Z,70.90
2019-04-25T22:18:28.100Z,71.30
2019-04-25T22:20:31.567Z,71.40
2019-04-25T22:22:35.021Z,71.50
2019-04-25T22:24:38.534Z,71.50
2019-04-25T22:26:42.196Z,71.80
2019-04-25T22:28:45.676Z,72.10
2019-04-25T22:30:50.840Z,72.00
2019-04-25T22:33:03.701Z,72.00
2019-04-25T22:35:15.081Z,72.30
2019-04-25T22:37:18.556Z,72.50
2019-04-25T22:39:22.048Z,72.80
2019-04-25T22:41:25.543Z,73.10
2019-04-25T22:43:29.100Z,72.80
2019-04-25T22:45:33.578Z,73.20
2019-04-25T22:47:38.846Z,73.10
2019-04-25T22:49:43.177Z,73.10
2019-04-25T22:51:46.655Z,73.20
2019-04-25T22:53:50.171Z,73.20
2019-04-25T22:55:53.588Z,73.50
2019-04-25T22:57:57.036Z,73.80
2019-04-25T23:00:01.608Z,74.10
2019-04-25T23:02:10.154Z,74.40
2019-04-25T23:04:18.693Z,74.40
2019-04-25T23:06:23.316Z,74.50
2019-04-25T23:08:28.050Z,74.50
2019-04-25T23:10:32.625Z,74.90
2019-04-25T23:12:37.521Z,75.00
2019-04-25T23:14:41.764Z,75.10
2019-04-25T23:16:46.946Z,75.30
2019-04-25T23:18:52.889Z,75.50
2019-04-25T23:20:58.101Z,75.30
2019-04-25T23:23:04.161Z,75.50
2019-04-25T23:25:09.961Z,75.40
2019-04-25T23:27:19.760Z,75.60
2019-04-25T23:29:24.552Z,75.80
2019-04-25T23:31:29.000Z,75.80
2019-04-25T23:33:33.313Z,76.20
2019-04-25T23:35:36.947Z,76.20
2019-04-25T23:37:40.436Z,76.30
2019-04-25T23:39:44.617Z,76.30
2019-04-25T23:41:48.064Z,76.70
2019-04-25T23:43:51.546Z,77.30
2019-04-25T23:45:55.043Z,77.30
2019-04-25T23:47:58.534Z,77.50
2019-04-25T23:50:01.963Z,78.00
2019-04-25T23:52:07.293Z,78.00
2019-04-25T23:54:08.951Z,77.20
2019-04-25T23:56:13.087Z,77.10
2019-04-25T23:58:15.835Z,77.40
